sensor_id;sensor_type;location;lat;lon;timestamp;P1;durP1;ratioP1;P2;durP2;ratioP2
22983;SDS011;11658;48.908;9.140;2023-05-10T03:02:47;1.97;;;1.80;;
22983;SDS011;11658;48.908;9.140;2023-05-10T03:05:12;4.27;;;1.87;;
22983;SDS011;11658;48.908;9.140;2023-05-10T03:07:38;2.53;;;1.80;;
22983;SDS011;11658;48.908;9.140;2023-05-10T03:10:03;2.10;;;1.90;;
22983;SDS011;11658;48.908;9.140;2023-05-10T03:15:11;2.17;;;1.97;;
22983;SDS011;11658;48.908;9.140;2023-05-10T03:20:36;2.23;;;1.90;;
22983;SDS011;11658;48.908;9.140;2023-05-10T03:23:12;2.33;;;2.00;;
22983;SDS011;11658;48.908;9.140;2023-05-10T03:25:46;2.27;;;2.07;;
22983;SDS011;11658;48.908;9.140;2023-05-10T03:28:13;3.20;;;2.20;;
22983;SDS011;11658;48.908;9.140;2023-05-10T03:30:40;2.30;;;2.10;;
22983;SDS011;11658;48.908;9.140;2023-05-10T03:33:07;2.10;;;1.90;;
22983;SDS011;11658;48.908;9.140;2023-05-10T03:35:33;2.60;;;2.40;;
22983;SDS011;11658;48.908;9.140;2023-05-10T03:37:59;3.27;;;2.50;;
22983;SDS011;11658;48.908;9.140;2023-05-10T03:40:26;2.50;;;2.30;;
22983;SDS011;11658;48.908;9.140;2023-05-10T03:42:53;3.20;;;2.27;;
22983;SDS011;11658;48.908;9.140;2023-05-10T03:45:20;4.63;;;2.50;;
22983;SDS011;11658;48.908;9.140;2023-05-10T03:47:45;3.03;;;2.57;;
22983;SDS011;11658;48.908;9.140;2023-05-10T03:50:11;2.80;;;2.60;;
22983;SDS011;11658;48.908;9.140;2023-05-10T03:52:36;2.90;;;2.70;;
22983;SDS011;11658;48.908;9.140;2023-05-10T03:55:04;3.00;;;2.70;;
22983;SDS011;11658;48.908;9.140;2023-05-10T03:57:30;3.00;;;2.67;;
22983;SDS011;11658;48.908;9.140;2023-05-10T03:59:56;3.17;;;2.93;;
22983;SDS011;11658;48.908;9.140;2023-05-10T04:02:21;2.97;;;2.77;;
22983;SDS011;11658;48.908;9.140;2023-05-10T04:04:47;2.73;;;2.50;;
22983;SDS011;11658;48.908;9.140;2023-05-10T04:07:13;2.57;;;2.40;;
22983;SDS011;11658;48.908;9.140;2023-05-10T04:09:40;2.60;;;2.40;;
22983;SDS011;11658;48.908;9.140;2023-05-10T04:12:05;2.60;;;2.40;;
22983;SDS011;11658;48.908;9.140;2023-05-10T04:14:31;2.00;;;1.90;;
22983;SDS011;11658;48.908;9.140;2023-05-10T04:16:56;3.83;;;2.03;;
22983;SDS011;11658;48.908;9.140;2023-05-10T04:19:22;2.23;;;1.83;;
22983;SDS011;11658;48.908;9.140;2023-05-10T04:21:48;2.23;;;1.80;;
22983;SDS011;11658;48.908;9.140;2023-05-10T04:24:13;2.77;;;1.83;;
22983;SDS011;11658;48.908;9.140;2023-05-10T04:26:39;2.00;;;1.80;;
22983;SDS011;11658;48.908;9.140;2023-05-10T04:29:05;3.10;;;2.03;;
22983;SDS011;11658;48.908;9.140;2023-05-10T04:31:31;1.60;;;1.50;;
22983;SDS011;11658;48.908;9.140;2023-05-10T04:33:56;2.60;;;1.80;;
22983;SDS011;11658;48.908;9.140;2023-05-10T04:36:22;1.90;;;1.60;;
22983;SDS011;11658;48.908;9.140;2023-05-10T04:38:47;1.90;;;1.80;;
22983;SDS011;11658;48.908;9.140;2023-05-10T04:41:13;1.90;;;1.67;;
22983;SDS011;11658;48.908;9.140;2023-05-10T04:43:39;3.27;;;2.17;;
22983;SDS011;11658;48.908;9.140;2023-05-10T04:46:04;2.50;;;1.90;;
22983;SDS011;11658;48.908;9.140;2023-05-10T04:48:31;1.90;;;1.80;;
22983;SDS011;11658;48.908;9.140;2023-05-10T04:50:56;2.07;;;1.90;;
22983;SDS011;11658;48.908;9.140;2023-05-10T04:53:22;2.30;;;2.03;;
22983;SDS011;11658;48.908;9.140;2023-05-10T04:55:47;2.23;;;2.10;;
22983;SDS011;11658;48.908;9.140;2023-05-10T04:58:13;2.10;;;1.90;;
22983;SDS011;11658;48.908;9.140;2023-05-10T05:00:39;2.03;;;1.90;;
22983;SDS011;11658;48.908;9.140;2023-05-10T05:03:05;3.67;;;2.00;;
22983;SDS011;11658;48.908;9.140;2023-05-10T05:05:30;2.77;;;2.07;;
22983;SDS011;11658;48.908;9.140;2023-05-10T05:07:56;2.30;;;2.10;;
22983;SDS011;11658;48.908;9.140;2023-05-10T05:10:22;2.73;;;2.00;;
22983;SDS011;11658;48.908;9.140;2023-05-10T05:12:47;3.30;;;1.90;;
22983;SDS011;11658;48.908;9.140;2023-05-10T05:15:13;2.30;;;2.10;;
22983;SDS011;11658;48.908;9.140;2023-05-10T05:17:40;2.63;;;2.03;;
22983;SDS011;11658;48.908;9.140;2023-05-10T05:20:05;3.53;;;2.30;;
22983;SDS011;11658;48.908;9.140;2023-05-10T05:22:32;2.10;;;1.90;;
22983;SDS011;11658;48.908;9.140;2023-05-10T05:24:58;2.50;;;2.30;;
22983;SDS011;11658;48.908;9.140;2023-05-10T05:27:24;2.43;;;1.90;;
22983;SDS011;11658;48.908;9.140;2023-05-10T05:29:54;2.40;;;2.20;;
22983;SDS011;11658;48.908;9.140;2023-05-10T05:32:21;2.10;;;1.90;;
22983;SDS011;11658;48.908;9.140;2023-05-10T05:34:47;2.47;;;2.10;;
22983;SDS011;11658;48.908;9.140;2023-05-10T05:37:13;3.40;;;2.07;;
22983;SDS011;11658;48.908;9.140;2023-05-10T05:39:39;2.20;;;2.03;;
22983;SDS011;11658;48.908;9.140;2023-05-10T05:42:05;2.83;;;1.93;;
22983;SDS011;11658;48.908;9.140;2023-05-10T05:44:31;3.00;;;2.13;;
22983;SDS011;11658;48.908;9.140;2023-05-10T05:46:56;4.03;;;2.03;;
22983;SDS011;11658;48.908;9.140;2023-05-10T05:49:22;2.73;;;2.10;;
22983;SDS011;11658;48.908;9.140;2023-05-10T05:51:47;3.00;;;2.67;;
22983;SDS011;11658;48.908;9.140;2023-05-10T05:54:15;3.10;;;2.47;;
22983;SDS011;11658;48.908;9.140;2023-05-10T05:56:40;3.43;;;2.60;;
22983;SDS011;11658;48.908;9.140;2023-05-10T05:59:06;4.03;;;3.37;;
22983;SDS011;11658;48.908;9.140;2023-05-10T06:01:32;7.10;;;4.37;;
22983;SDS011;11658;48.908;9.140;2023-05-10T06:03:57;5.33;;;3.83;;
22983;SDS011;11658;48.908;9.140;2023-05-10T06:06:23;4.00;;;3.03;;
22983;SDS011;11658;48.908;9.140;2023-05-10T06:08:48;3.17;;;2.90;;
22983;SDS011;11658;48.908;9.140;2023-05-10T06:11:14;2.70;;;2.50;;
22983;SDS011;11658;48.908;9.140;2023-05-10T06:13:40;2.50;;;2.30;;
22983;SDS011;11658;48.908;9.140;2023-05-10T06:16:07;3.87;;;2.60;;
22983;SDS011;11658;48.908;9.140;2023-05-10T06:18:32;2.50;;;2.27;;
22983;SDS011;11658;48.908;9.140;2023-05-10T06:20:58;3.73;;;2.60;;
22983;SDS011;11658;48.908;9.140;2023-05-10T06:23:24;3.27;;;2.07;;
22983;SDS011;11658;48.908;9.140;2023-05-10T06:25:50;2.20;;;2.00;;
22983;SDS011;11658;48.908;9.140;2023-05-10T06:28:16;2.20;;;2.00;;
22983;SDS011;11658;48.908;9.140;2023-05-10T06:30:42;5.67;;;2.10;;
22983;SDS011;11658;48.908;9.140;2023-05-10T06:33:08;4.67;;;1.97;;
22983;SDS011;11658;48.908;9.140;2023-05-10T06:35:33;3.10;;;2.23;;
22983;SDS011;11658;48.908;9.140;2023-05-10T06:37:59;3.30;;;2.30;;
22983;SDS011;11658;48.908;9.140;2023-05-10T06:40:24;3.17;;;1.83;;
22983;SDS011;11658;48.908;9.140;2023-05-10T06:42:51;4.87;;;2.00;;
22983;SDS011;11658;48.908;9.140;2023-05-10T06:45:16;1.93;;;1.70;;
22983;SDS011;11658;48.908;9.140;2023-05-10T06:47:42;3.50;;;2.00;;
22983;SDS011;11658;48.908;9.140;2023-05-10T06:50:08;3.43;;;1.73;;
22983;SDS011;11658;48.908;9.140;2023-05-10T06:52:34;2.93;;;1.83;;
22983;SDS011;11658;48.908;9.140;2023-05-10T06:55:00;3.13;;;1.63;;
22983;SDS011;11658;48.908;9.140;2023-05-10T06:57:26;2.10;;;1.40;;
22983;SDS011;11658;48.908;9.140;2023-05-10T06:59:52;2.13;;;1.50;;
22983;SDS011;11658;48.908;9.140;2023-05-10T07:02:17;1.43;;;1.33;;
22983;SDS011;11658;48.908;9.140;2023-05-10T07:04:43;2.07;;;1.70;;
22983;SDS011;11658;48.908;9.140;2023-05-10T07:07:09;1.20;;;1.10;;
22983;SDS011;11658;48.908;9.140;2023-05-10T07:09:35;1.30;;;1.17;;
22983;SDS011;11658;48.908;9.140;2023-05-10T07:12:00;2.67;;;1.50;;
22983;SDS011;11658;48.908;9.140;2023-05-10T07:14:26;3.90;;;1.30;;
22983;SDS011;11658;48.908;9.140;2023-05-10T07:16:52;1.47;;;1.00;;
22983;SDS011;11658;48.908;9.140;2023-05-10T07:19:18;1.83;;;1.30;;
22983;SDS011;11658;48.908;9.140;2023-05-10T07:21:44;1.30;;;1.10;;
22983;SDS011;11658;48.908;9.140;2023-05-10T07:24:10;1.60;;;1.20;;
22983;SDS011;11658;48.908;9.140;2023-05-10T07:26:35;1.20;;;1.10;;
22983;SDS011;11658;48.908;9.140;2023-05-10T07:29:01;1.57;;;1.20;;
22983;SDS011;11658;48.908;9.140;2023-05-10T07:31:27;1.63;;;1.20;;
22983;SDS011;11658;48.908;9.140;2023-05-10T07:33:53;2.73;;;1.10;;
22983;SDS011;11658;48.908;9.140;2023-05-10T07:36:18;3.37;;;1.10;;
22983;SDS011;11658;48.908;9.140;2023-05-10T07:38:44;0.97;;;0.80;;
22983;SDS011;11658;48.908;9.140;2023-05-10T07:41:11;3.93;;;1.13;;
22983;SDS011;11658;48.908;9.140;2023-05-10T07:43:36;0.80;;;0.80;;
22983;SDS011;11658;48.908;9.140;2023-05-10T07:46:02;1.73;;;0.80;;
22983;SDS011;11658;48.908;9.140;2023-05-10T07:48:28;3.27;;;0.70;;
22983;SDS011;11658;48.908;9.140;2023-05-10T07:50:53;1.10;;;1.00;;
22983;SDS011;11658;48.908;9.140;2023-05-10T07:53:19;0.90;;;0.60;;
22983;SDS011;11658;48.908;9.140;2023-05-10T07:55:49;0.70;;;0.70;;
22983;SDS011;11658;48.908;9.140;2023-05-10T07:58:15;1.00;;;0.93;;
22983;SDS011;11658;48.908;9.140;2023-05-10T08:00:41;0.83;;;0.70;;
22983;SDS011;11658;48.908;9.140;2023-05-10T08:03:06;1.23;;;0.80;;
22983;SDS011;11658;48.908;9.140;2023-05-10T08:05:32;0.67;;;0.67;;
22983;SDS011;11658;48.908;9.140;2023-05-10T08:07:57;1.30;;;0.57;;
22983;SDS011;11658;48.908;9.140;2023-05-10T08:10:24;0.60;;;0.60;;
22983;SDS011;11658;48.908;9.140;2023-05-10T08:12:50;1.30;;;0.60;;
22983;SDS011;11658;48.908;9.140;2023-05-10T08:15:16;0.93;;;0.80;;
22983;SDS011;11658;48.908;9.140;2023-05-10T08:17:41;1.03;;;0.70;;
22983;SDS011;11658;48.908;9.140;2023-05-10T08:20:08;1.13;;;0.60;;
22983;SDS011;11658;48.908;9.140;2023-05-10T08:22:34;2.23;;;0.70;;
22983;SDS011;11658;48.908;9.140;2023-05-10T08:24:59;0.93;;;0.60;;
22983;SDS011;11658;48.908;9.140;2023-05-10T08:27:25;5.13;;;1.00;;
22983;SDS011;11658;48.908;9.140;2023-05-10T08:29:50;0.70;;;0.53;;
22983;SDS011;11658;48.908;9.140;2023-05-10T08:32:16;1.37;;;0.60;;
22983;SDS011;11658;48.908;9.140;2023-05-10T08:34:42;0.93;;;0.53;;
22983;SDS011;11658;48.908;9.140;2023-05-10T08:37:08;0.60;;;0.60;;
22983;SDS011;11658;48.908;9.140;2023-05-10T08:39:35;0.73;;;0.50;;
22983;SDS011;11658;48.908;9.140;2023-05-10T08:42:01;0.70;;;0.70;;
22983;SDS011;11658;48.908;9.140;2023-05-10T08:44:30;4.07;;;0.53;;
22983;SDS011;11658;48.908;9.140;2023-05-10T08:46:57;0.80;;;0.50;;
22983;SDS011;11658;48.908;9.140;2023-05-10T08:49:27;0.57;;;0.57;;
22983;SDS011;11658;48.908;9.140;2023-05-10T08:51:57;1.93;;;0.50;;
22983;SDS011;11658;48.908;9.140;2023-05-10T08:54:24;2.00;;;0.70;;
22983;SDS011;11658;48.908;9.140;2023-05-10T08:56:50;2.03;;;0.73;;
22983;SDS011;11658;48.908;9.140;2023-05-10T08:59:16;3.17;;;0.70;;
22983;SDS011;11658;48.908;9.140;2023-05-10T09:01:42;0.73;;;0.50;;
22983;SDS011;11658;48.908;9.140;2023-05-10T09:04:09;0.50;;;0.43;;
22983;SDS011;11658;48.908;9.140;2023-05-10T09:06:35;1.03;;;0.67;;
22983;SDS011;11658;48.908;9.140;2023-05-10T09:09:01;0.30;;;0.30;;
22983;SDS011;11658;48.908;9.140;2023-05-10T09:11:28;1.13;;;0.60;;
22983;SDS011;11658;48.908;9.140;2023-05-10T09:13:54;0.57;;;0.47;;
22983;SDS011;11658;48.908;9.140;2023-05-10T09:16:21;2.00;;;0.60;;
22983;SDS011;11658;48.908;9.140;2023-05-10T09:18:47;0.47;;;0.47;;
22983;SDS011;11658;48.908;9.140;2023-05-10T09:21:14;0.87;;;0.70;;
22983;SDS011;11658;48.908;9.140;2023-05-10T09:23:46;1.77;;;0.70;;
22983;SDS011;11658;48.908;9.140;2023-05-10T09:26:14;0.53;;;0.53;;
22983;SDS011;11658;48.908;9.140;2023-05-10T09:28:53;0.50;;;0.50;;
22983;SDS011;11658;48.908;9.140;2023-05-10T09:31:21;1.23;;;0.40;;
22983;SDS011;11658;48.908;9.140;2023-05-10T09:33:47;0.63;;;0.50;;
22983;SDS011;11658;48.908;9.140;2023-05-10T09:36:14;0.53;;;0.50;;
22983;SDS011;11658;48.908;9.140;2023-05-10T09:38:47;0.93;;;0.53;;
22983;SDS011;11658;48.908;9.140;2023-05-10T09:41:20;0.60;;;0.50;;
22983;SDS011;11658;48.908;9.140;2023-05-10T09:43:47;2.40;;;0.73;;
22983;SDS011;11658;48.908;9.140;2023-05-10T09:46:14;0.47;;;0.40;;
22983;SDS011;11658;48.908;9.140;2023-05-10T09:48:49;0.53;;;0.40;;
22983;SDS011;11658;48.908;9.140;2023-05-10T09:51:18;0.80;;;0.50;;
22983;SDS011;11658;48.908;9.140;2023-05-10T09:53:45;2.17;;;0.50;;
22983;SDS011;11658;48.908;9.140;2023-05-10T09:56:11;1.73;;;0.57;;
22983;SDS011;11658;48.908;9.140;2023-05-10T09:58:36;0.53;;;0.37;;
22983;SDS011;11658;48.908;9.140;2023-05-10T10:01:05;2.37;;;0.53;;
22983;SDS011;11658;48.908;9.140;2023-05-10T10:03:41;0.50;;;0.50;;
22983;SDS011;11658;48.908;9.140;2023-05-10T10:06:07;2.37;;;0.80;;
22983;SDS011;11658;48.908;9.140;2023-05-10T10:08:33;0.77;;;0.50;;
22983;SDS011;11658;48.908;9.140;2023-05-10T10:10:59;3.20;;;0.60;;
22983;SDS011;11658;48.908;9.140;2023-05-10T10:13:26;0.83;;;0.70;;
22983;SDS011;11658;48.908;9.140;2023-05-10T10:15:52;1.03;;;0.50;;
22983;SDS011;11658;48.908;9.140;2023-05-10T10:18:18;1.43;;;0.60;;
22983;SDS011;11658;48.908;9.140;2023-05-10T10:20:48;0.50;;;0.47;;
22983;SDS011;11658;48.908;9.140;2023-05-10T10:23:14;1.53;;;0.60;;
22983;SDS011;11658;48.908;9.140;2023-05-10T10:25:40;2.27;;;0.60;;
22983;SDS011;11658;48.908;9.140;2023-05-10T10:31:02;0.50;;;0.50;;
22983;SDS011;11658;48.908;9.140;2023-05-10T10:34:38;0.53;;;0.53;;
22983;SDS011;11658;48.908;9.140;2023-05-10T10:36:47;0.70;;;0.70;;
22983;SDS011;11658;48.908;9.140;2023-05-10T10:39:13;0.70;;;0.70;;
22983;SDS011;11658;48.908;9.140;2023-05-10T10:41:40;2.10;;;0.53;;
22983;SDS011;11658;48.908;9.140;2023-05-10T10:49:31;1.47;;;0.57;;
22983;SDS011;11658;48.908;9.140;2023-05-10T11:03:13;0.87;;;0.53;;
22983;SDS011;11658;48.908;9.140;2023-05-10T11:05:44;1.27;;;0.60;;
22983;SDS011;11658;48.908;9.140;2023-05-10T11:08:30;1.20;;;0.63;;
22983;SDS011;11658;48.908;9.140;2023-05-10T11:13:42;3.10;;;0.80;;
22983;SDS011;11658;48.908;9.140;2023-05-10T11:18:53;0.70;;;0.70;;
22983;SDS011;11658;48.908;9.140;2023-05-10T11:21:18;1.23;;;0.90;;
22983;SDS011;11658;48.908;9.140;2023-05-10T11:23:48;0.70;;;0.60;;
22983;SDS011;11658;48.908;9.140;2023-05-10T11:26:15;0.90;;;0.60;;
22983;SDS011;11658;48.908;9.140;2023-05-10T11:28:44;1.03;;;0.93;;
22983;SDS011;11658;48.908;9.140;2023-05-10T11:31:13;0.60;;;0.60;;
22983;SDS011;11658;48.908;9.140;2023-05-10T11:33:47;2.10;;;0.80;;
22983;SDS011;11658;48.908;9.140;2023-05-10T11:36:19;0.80;;;0.70;;
22983;SDS011;11658;48.908;9.140;2023-05-10T11:38:48;2.10;;;0.60;;
22983;SDS011;11658;48.908;9.140;2023-05-10T11:41:14;1.37;;;0.80;;
22983;SDS011;11658;48.908;9.140;2023-05-10T11:43:41;4.03;;;1.10;;
22983;SDS011;11658;48.908;9.140;2023-05-10T11:46:08;0.73;;;0.73;;
22983;SDS011;11658;48.908;9.140;2023-05-10T11:48:36;3.27;;;1.30;;
22983;SDS011;11658;48.908;9.140;2023-05-10T11:51:04;1.57;;;0.90;;
22983;SDS011;11658;48.908;9.140;2023-05-10T11:53:30;1.43;;;0.90;;
22983;SDS011;11658;48.908;9.140;2023-05-10T11:58:33;3.03;;;1.00;;
22983;SDS011;11658;48.908;9.140;2023-05-10T12:00:59;3.67;;;1.30;;
22983;SDS011;11658;48.908;9.140;2023-05-10T12:03:26;2.73;;;1.00;;
22983;SDS011;11658;48.908;9.140;2023-05-10T12:05:53;2.10;;;1.20;;
22983;SDS011;11658;48.908;9.140;2023-05-10T12:08:20;2.60;;;1.23;;
22983;SDS011;11658;48.908;9.140;2023-05-10T12:10:47;3.13;;;1.43;;
22983;SDS011;11658;48.908;9.140;2023-05-10T12:13:13;2.80;;;1.60;;
22983;SDS011;11658;48.908;9.140;2023-05-10T12:15:40;1.70;;;1.20;;
22983;SDS011;11658;48.908;9.140;2023-05-10T12:18:08;1.77;;;0.90;;
22983;SDS011;11658;48.908;9.140;2023-05-10T12:20:35;3.07;;;1.00;;
22983;SDS011;11658;48.908;9.140;2023-05-10T12:23:01;3.20;;;0.83;;
22983;SDS011;11658;48.908;9.140;2023-05-10T12:25:32;1.23;;;1.00;;
22983;SDS011;11658;48.908;9.140;2023-05-10T12:27:59;1.17;;;0.80;;
22983;SDS011;11658;48.908;9.140;2023-05-10T12:30:29;2.37;;;0.90;;
22983;SDS011;11658;48.908;9.140;2023-05-10T12:33:00;2.50;;;0.80;;
22983;SDS011;11658;48.908;9.140;2023-05-10T12:35:32;2.87;;;0.80;;
22983;SDS011;11658;48.908;9.140;2023-05-10T12:37:58;0.73;;;0.63;;
22983;SDS011;11658;48.908;9.140;2023-05-10T12:40:24;1.47;;;0.80;;
22983;SDS011;11658;48.908;9.140;2023-05-10T12:42:50;0.77;;;0.70;;
22983;SDS011;11658;48.908;9.140;2023-05-10T12:45:17;2.30;;;0.80;;
22983;SDS011;11658;48.908;9.140;2023-05-10T12:47:43;1.10;;;0.60;;
22983;SDS011;11658;48.908;9.140;2023-05-10T12:50:08;3.43;;;0.90;;
22983;SDS011;11658;48.908;9.140;2023-05-10T12:52:35;1.37;;;0.90;;
22983;SDS011;11658;48.908;9.140;2023-05-10T12:55:01;1.07;;;0.77;;
22983;SDS011;11658;48.908;9.140;2023-05-10T12:57:27;1.13;;;0.70;;
22983;SDS011;11658;48.908;9.140;2023-05-10T12:59:54;1.00;;;0.70;;
22983;SDS011;11658;48.908;9.140;2023-05-10T13:02:19;1.90;;;0.77;;
22983;SDS011;11658;48.908;9.140;2023-05-10T13:04:46;1.00;;;0.60;;
22983;SDS011;11658;48.908;9.140;2023-05-10T13:07:12;1.40;;;0.60;;
22983;SDS011;11658;48.908;9.140;2023-05-10T13:09:38;0.53;;;0.50;;
22983;SDS011;11658;48.908;9.140;2023-05-10T13:12:04;1.73;;;0.90;;
22983;SDS011;11658;48.908;9.140;2023-05-10T13:14:30;2.77;;;0.70;;
22983;SDS011;11658;48.908;9.140;2023-05-10T13:16:56;0.63;;;0.60;;
22983;SDS011;11658;48.908;9.140;2023-05-10T13:19:21;1.60;;;0.90;;
22983;SDS011;11658;48.908;9.140;2023-05-10T13:21:47;1.27;;;1.00;;
22983;SDS011;11658;48.908;9.140;2023-05-10T13:24:13;1.20;;;0.40;;
22983;SDS011;11658;48.908;9.140;2023-05-10T13:26:42;0.90;;;0.63;;
22983;SDS011;11658;48.908;9.140;2023-05-10T13:29:08;1.97;;;0.63;;
22983;SDS011;11658;48.908;9.140;2023-05-10T13:31:34;1.13;;;0.80;;
22983;SDS011;11658;48.908;9.140;2023-05-10T13:34:00;2.43;;;1.00;;
22983;SDS011;11658;48.908;9.140;2023-05-10T13:36:27;1.37;;;0.70;;
22983;SDS011;11658;48.908;9.140;2023-05-10T13:38:53;0.70;;;0.70;;
22983;SDS011;11658;48.908;9.140;2023-05-10T13:41:18;2.40;;;0.70;;
22983;SDS011;11658;48.908;9.140;2023-05-10T13:43:44;1.60;;;0.70;;
22983;SDS011;11658;48.908;9.140;2023-05-10T13:46:09;0.70;;;0.60;;
22983;SDS011;11658;48.908;9.140;2023-05-10T13:48:35;0.67;;;0.50;;
22983;SDS011;11658;48.908;9.140;2023-05-10T13:51:02;1.03;;;0.70;;
22983;SDS011;11658;48.908;9.140;2023-05-10T13:53:27;1.07;;;0.83;;
22983;SDS011;11658;48.908;9.140;2023-05-10T13:55:53;1.20;;;0.63;;
22983;SDS011;11658;48.908;9.140;2023-05-10T13:58:19;1.50;;;0.80;;
22983;SDS011;11658;48.908;9.140;2023-05-10T14:00:44;6.03;;;1.00;;
22983;SDS011;11658;48.908;9.140;2023-05-10T14:03:10;2.57;;;0.80;;
22983;SDS011;11658;48.908;9.140;2023-05-10T14:05:35;0.60;;;0.60;;
22983;SDS011;11658;48.908;9.140;2023-05-10T14:08:01;2.20;;;0.80;;
22983;SDS011;11658;48.908;9.140;2023-05-10T14:10:27;1.90;;;0.80;;
22983;SDS011;11658;48.908;9.140;2023-05-10T14:12:53;1.33;;;0.70;;
22983;SDS011;11658;48.908;9.140;2023-05-10T14:15:18;1.00;;;0.53;;
22983;SDS011;11658;48.908;9.140;2023-05-10T14:17:44;0.53;;;0.53;;
22983;SDS011;11658;48.908;9.140;2023-05-10T14:20:10;1.80;;;0.80;;
22983;SDS011;11658;48.908;9.140;2023-05-10T14:22:36;1.17;;;0.70;;
22983;SDS011;11658;48.908;9.140;2023-05-10T14:25:01;1.50;;;0.60;;
22983;SDS011;11658;48.908;9.140;2023-05-10T14:27:27;2.73;;;0.90;;
22983;SDS011;11658;48.908;9.140;2023-05-10T14:29:53;0.63;;;0.60;;
22983;SDS011;11658;48.908;9.140;2023-05-10T14:32:18;2.10;;;0.80;;
22983;SDS011;11658;48.908;9.140;2023-05-10T14:34:44;1.77;;;0.87;;
22983;SDS011;11658;48.908;9.140;2023-05-10T14:37:10;2.07;;;0.90;;
22983;SDS011;11658;48.908;9.140;2023-05-10T14:39:39;1.03;;;0.67;;
22983;SDS011;11658;48.908;9.140;2023-05-10T14:42:05;1.47;;;0.63;;
22983;SDS011;11658;48.908;9.140;2023-05-10T14:44:30;2.13;;;0.70;;
22983;SDS011;11658;48.908;9.140;2023-05-10T14:46:56;1.33;;;0.60;;
22983;SDS011;11658;48.908;9.140;2023-05-10T14:49:22;1.03;;;0.70;;
22983;SDS011;11658;48.908;9.140;2023-05-10T14:51:49;2.47;;;0.73;;
22983;SDS011;11658;48.908;9.140;2023-05-10T14:54:15;3.57;;;0.80;;
22983;SDS011;11658;48.908;9.140;2023-05-10T14:56:40;2.30;;;0.93;;
22983;SDS011;11658;48.908;9.140;2023-05-10T14:59:07;0.93;;;0.67;;
22983;SDS011;11658;48.908;9.140;2023-05-10T15:01:33;2.20;;;0.73;;
22983;SDS011;11658;48.908;9.140;2023-05-10T15:04:02;0.63;;;0.60;;
22983;SDS011;11658;48.908;9.140;2023-05-10T15:06:31;1.10;;;0.60;;
22983;SDS011;11658;48.908;9.140;2023-05-10T15:08:57;0.77;;;0.77;;
22983;SDS011;11658;48.908;9.140;2023-05-10T15:11:23;2.83;;;0.90;;
22983;SDS011;11658;48.908;9.140;2023-05-10T15:13:48;2.03;;;0.80;;
22983;SDS011;11658;48.908;9.140;2023-05-10T15:16:14;0.90;;;0.70;;
22983;SDS011;11658;48.908;9.140;2023-05-10T15:18:40;0.90;;;0.80;;
22983;SDS011;11658;48.908;9.140;2023-05-10T15:21:05;1.97;;;0.63;;
22983;SDS011;11658;48.908;9.140;2023-05-10T15:23:31;1.93;;;0.70;;
22983;SDS011;11658;48.908;9.140;2023-05-10T15:25:57;2.03;;;0.50;;
22983;SDS011;11658;48.908;9.140;2023-05-10T15:28:22;2.93;;;1.03;;
22983;SDS011;11658;48.908;9.140;2023-05-10T15:30:48;2.33;;;0.70;;
22983;SDS011;11658;48.908;9.140;2023-05-10T15:33:13;1.77;;;0.70;;
22983;SDS011;11658;48.908;9.140;2023-05-10T15:35:39;2.13;;;0.90;;
22983;SDS011;11658;48.908;9.140;2023-05-10T15:38:05;1.43;;;0.70;;
22983;SDS011;11658;48.908;9.140;2023-05-10T15:40:32;2.10;;;0.70;;
22983;SDS011;11658;48.908;9.140;2023-05-10T15:42:57;0.50;;;0.50;;
22983;SDS011;11658;48.908;9.140;2023-05-10T15:45:23;0.60;;;0.60;;
22983;SDS011;11658;48.908;9.140;2023-05-10T15:47:48;1.00;;;0.90;;
22983;SDS011;11658;48.908;9.140;2023-05-10T15:50:14;1.47;;;0.70;;
22983;SDS011;11658;48.908;9.140;2023-05-10T15:52:41;0.70;;;0.60;;
22983;SDS011;11658;48.908;9.140;2023-05-10T15:55:07;0.80;;;0.70;;
22983;SDS011;11658;48.908;9.140;2023-05-10T15:57:37;1.80;;;0.60;;
22983;SDS011;11658;48.908;9.140;2023-05-10T16:00:04;3.13;;;0.53;;
22983;SDS011;11658;48.908;9.140;2023-05-10T16:02:30;1.00;;;0.70;;
22983;SDS011;11658;48.908;9.140;2023-05-10T16:04:56;1.43;;;0.50;;
22983;SDS011;11658;48.908;9.140;2023-05-10T16:07:22;1.53;;;0.63;;
22983;SDS011;11658;48.908;9.140;2023-05-10T16:09:47;2.73;;;0.70;;
22983;SDS011;11658;48.908;9.140;2023-05-10T16:12:13;0.47;;;0.47;;
22983;SDS011;11658;48.908;9.140;2023-05-10T16:14:39;0.77;;;0.70;;
22983;SDS011;11658;48.908;9.140;2023-05-10T16:17:04;2.43;;;0.60;;
22983;SDS011;11658;48.908;9.140;2023-05-10T16:19:31;2.00;;;0.70;;
22983;SDS011;11658;48.908;9.140;2023-05-10T16:21:57;2.93;;;0.47;;
22983;SDS011;11658;48.908;9.140;2023-05-10T16:24:23;0.90;;;0.60;;
22983;SDS011;11658;48.908;9.140;2023-05-10T16:26:49;0.80;;;0.80;;
22983;SDS011;11658;48.908;9.140;2023-05-10T16:29:15;1.13;;;0.70;;
22983;SDS011;11658;48.908;9.140;2023-05-10T16:31:41;1.40;;;0.60;;
22983;SDS011;11658;48.908;9.140;2023-05-10T16:34:06;1.00;;;0.60;;
22983;SDS011;11658;48.908;9.140;2023-05-10T16:36:32;0.60;;;0.60;;
22983;SDS011;11658;48.908;9.140;2023-05-10T16:38:58;1.37;;;0.70;;
22983;SDS011;11658;48.908;9.140;2023-05-10T16:41:23;1.37;;;0.53;;
22983;SDS011;11658;48.908;9.140;2023-05-10T16:43:49;1.40;;;0.50;;
22983;SDS011;11658;48.908;9.140;2023-05-10T16:46:15;0.53;;;0.50;;
22983;SDS011;11658;48.908;9.140;2023-05-10T16:48:40;2.03;;;0.60;;
22983;SDS011;11658;48.908;9.140;2023-05-10T16:51:06;1.20;;;0.80;;
22983;SDS011;11658;48.908;9.140;2023-05-10T16:53:32;1.20;;;0.80;;
22983;SDS011;11658;48.908;9.140;2023-05-10T16:55:58;0.93;;;0.70;;
22983;SDS011;11658;48.908;9.140;2023-05-10T16:58:23;1.80;;;0.70;;
22983;SDS011;11658;48.908;9.140;2023-05-10T17:00:49;1.27;;;0.77;;
22983;SDS011;11658;48.908;9.140;2023-05-10T17:03:15;0.70;;;0.50;;
22983;SDS011;11658;48.908;9.140;2023-05-10T17:05:40;2.03;;;0.77;;
22983;SDS011;11658;48.908;9.140;2023-05-10T17:08:07;0.60;;;0.60;;
22983;SDS011;11658;48.908;9.140;2023-05-10T17:10:33;1.60;;;1.30;;
22983;SDS011;11658;48.908;9.140;2023-05-10T17:13:00;2.57;;;1.30;;
22983;SDS011;11658;48.908;9.140;2023-05-10T17:15:25;1.00;;;0.90;;
22983;SDS011;11658;48.908;9.140;2023-05-10T17:17:51;1.20;;;0.87;;
22983;SDS011;11658;48.908;9.140;2023-05-10T17:20:17;1.50;;;0.83;;
22983;SDS011;11658;48.908;9.140;2023-05-10T17:22:42;1.47;;;0.80;;
22983;SDS011;11658;48.908;9.140;2023-05-10T17:25:08;1.73;;;0.70;;
22983;SDS011;11658;48.908;9.140;2023-05-10T17:27:34;3.30;;;1.10;;
22983;SDS011;11658;48.908;9.140;2023-05-10T17:30:00;1.30;;;1.20;;
22983;SDS011;11658;48.908;9.140;2023-05-10T17:32:25;0.70;;;0.67;;
22983;SDS011;11658;48.908;9.140;2023-05-10T17:34:51;1.77;;;0.97;;
22983;SDS011;11658;48.908;9.140;2023-05-10T17:37:16;0.93;;;0.93;;
22983;SDS011;11658;48.908;9.140;2023-05-10T17:39:42;1.63;;;1.10;;
22983;SDS011;11658;48.908;9.140;2023-05-10T17:42:07;2.57;;;1.20;;
22983;SDS011;11658;48.908;9.140;2023-05-10T17:44:33;1.67;;;1.10;;
22983;SDS011;11658;48.908;9.140;2023-05-10T17:46:58;1.80;;;0.97;;
22983;SDS011;11658;48.908;9.140;2023-05-10T17:49:24;0.80;;;0.80;;
22983;SDS011;11658;48.908;9.140;2023-05-10T17:51:50;1.07;;;1.03;;
22983;SDS011;11658;48.908;9.140;2023-05-10T17:54:15;1.40;;;1.20;;
22983;SDS011;11658;48.908;9.140;2023-05-10T17:56:41;0.73;;;0.67;;
22983;SDS011;11658;48.908;9.140;2023-05-10T17:59:06;0.80;;;0.60;;
22983;SDS011;11658;48.908;9.140;2023-05-10T18:01:32;1.13;;;0.83;;
22983;SDS011;11658;48.908;9.140;2023-05-10T18:03:58;4.10;;;1.00;;
22983;SDS011;11658;48.908;9.140;2023-05-10T18:06:24;1.33;;;0.67;;
22983;SDS011;11658;48.908;9.140;2023-05-10T18:08:50;1.03;;;0.60;;
22983;SDS011;11658;48.908;9.140;2023-05-10T18:11:15;1.80;;;0.90;;
22983;SDS011;11658;48.908;9.140;2023-05-10T18:13:41;1.20;;;0.73;;
22983;SDS011;11658;48.908;9.140;2023-05-10T18:16:06;1.00;;;0.90;;
22983;SDS011;11658;48.908;9.140;2023-05-10T18:18:36;0.70;;;0.70;;